Timeline UpdatesTrip UpdatesNews PostsPvt PostsTravel TipsAdmin PostsConv PostsFollowed PostsChat RequestsBlog PostsPNR Posts

Disclaimer
Search
 
 
Thu Oct 2, 2014 03:53:07 ISTHomeTrainsΣChainsAtlasPNRForumGalleryNewsFAQTripsMembersLoginFeedback
No Recent News for this Train
Other Trains in the News **new
Latest...
⇐ Return Journey: Train# 59812

59811/Haldighati Passenger

Time-Table HAS CHANGED.
Sep 02 (12:23AM)
Change Departure Station:
Change Arrival Station:
Post a Train Travel TipPost a Train Travel Tip **new
Post a Comment/Question/Picture/VideoPost a Comment/Question/Picture/Video
Pantry/Catering
✕ NO Pantry Car
✓ Catering Avbl
Loco/Rake Reversals
KOTA/Kota Junction (5);
RSA - Rake Sharing
Comes to AF as 59811, departs as 59814
Rake/Coach Composition
Loco-SLR+Handicapped-GS1-GS2-GS3-GS4-GS5-S1-S2-S3-GS6-GS7-GS8-SLR; Total Length-13 Coaches
Loco
Rtm-Kota:- WDM 3A RTM shed Kota-AF:- WAM 4E BRC shed Re# 549005-21
News    PNR    Forum    Time-Table    Availability    Fare Chart    Map    Arr/Dep History    Trips    Gallery    ΣChains    X/O    Timeline    
Travel Time: 1h 28m    7 halts    Distance: 50 km    Avg Speed: 34 km/hr
Type: Passenger
Zone: WR/Western
Departs @ 04:32 (Avg 14m late)
Platform# ???
SMTWTFS
Rupbas/RBS 
Arrives @ 06:00 (Avg 9m late)
Platform# 2
SMTWTFS
Agra Fort/AF 

7 halts. 7 intermediate Stations between Rupbas and Agra Fort

Show ALL intermediate Stations  Show Old Time-Table

#CodeStation NameX/OArrivesAvgDepartsAvgHaltPFDay#KmSpeedElevZoneAddress
1RTMRatlam Junction (7)  -09:55 08:30+4--1-643.960495mWRRatlam, Madhya Pradesh
2NLINamli  10:10 08:43+1310:11 08:45+131 2m--1-631.054494mWRNamli, Madhya Pradesh
3BRLABrayla ChaurasiX  10:22 08:58+1410:23 09:00+161 2m--1-619.428486mWRBadayla Chorasi Rd, Madhya Pradesh
4JAOJaora (2)  10:32 09:18+1410:33 09:20+151 2m11-611.060476mWRJaora, Madhya Pradesh
5DODDhodhar  10:47 09:37+1610:48 09:39+161 2m--1-594.170478mWRDhodar, Madhya Pradesh
6KCNRKachnara Road new halt!!  09:47+1509:49+152m--1-584.753498mWRSarsod, Madhya Pradesh
7DLDDalauda  11:10 10:01+1611:11 10:03+161 2m--1-574.259469mWRDalauda, Madhya Pradesh
8MDSMandsor (2)  11:23 10:18+1711:24 10:20+211 2m--1-559.552436mWRMandsaur, Madhya Pradesh
9PIPPiplia (1)  11:40 10:38+2211:41 10:40+221 2m11-543.848472mWRPanth Pipalia, Madhya Pradesh
10MLGMalhargarh  11:51 10:50+2411:52 10:52+241 2m--1-535.852466mWRMalhargarh, Madhya Pradesh
11HKLHarkia Khal  12:22 11:06+1212:23 11:08+121 2m--1-523.729455mWRState Highway 31, Rajasthan
12NMHNimach (3)  12:45 11:35+012:55 11:40+410 5m--1-510.558490mWRMDR 11A, Madhya Pradesh
13BIWKBisalwas KalanX  13:04 11:50+1113:05 11:52+131 2m--1-500.817477mWRMDR 11A, Rajasthan
14JWOJawad RoadX  13:15 12:16+613:16 12:18+81 2m--1-494.131462mWRNayagaon, Rajasthan
15NBHNimbahera (1)  13:26 12:38+413:27 12:40+81 2m11-483.838441mWRNimbahera, Rajasthan
16GRFGambhiri RoadO  13:36 12:53+913:37 12:55+91 2m11-475.529441mWRNational Highway 79, Rajasthan
17SMPShambhupura  13:47 13:14+513:48 13:16+71 2m--1-466.321423mWRShambhupura, Rajasthan
18CORChittaurgarh Junction (5)X  14:00 13:50+214:10+210 20m--1-454.615403mWRChittorgarh, Rajasthan
19CNAChanderiya (2)  14:38-314:40+02m--1-447.752408mWRChittorgarh, Rajasthan
20PSLIParsoli  15:18+615:20+52m--1-414.653380mWCRNH 76, Rajasthan
21MLGHMandalgarh  15:48+615:50+82m--1-390.048382mWCRMandalgarh, Rajasthan
22SMPAShampura  16:10+916:12+92m--1-374.129395mWCRMandalgarh, Rajasthan
23URMLUpramal  16:22+816:23+91m--1-369.2107390mWCRMDR 41, Rajasthan
24JNRIJalindri  16:31+1016:32+191m--1-354.955 WCR
25SNARSrinagar RajasthanX  16:58+2817:00+302m--1-330.921259mWCRShreenagar RJ, Rajasthan
26BUDIBundiO  17:48 17:30+1217:50 17:35+122 5m--1-320.614256mWCRBundi, Rajasthan
27KOTAKota Junction (5)↵¶20:20+121:00+140m11-282.941256mWCRKota, Rajasthan
28GQLGurla  21:08+721:10+62m--1-277.560251mWCRSH 33, Rajasthan
29KPTNKeshorai PatanX  21:19 21:18+621:20+61 2m--1-269.582243mWCRSH 33, Rajasthan
30AREArnetha  21:29 21:28+721:30+71 2m--1-258.669239mWCRShreepura, Rajasthan
31KPZKaprenX  21:39 21:38+621:40+151 2m--1-249.475234mWCRKota - Lalsot Mega Highway, Rajasthan
32GKBGhataka VaranaXO  21:49 21:48+1821:50+201 2m--1-239.470232mWCRSH 33, Rajasthan
33LBNLaban (2)X  21:59 21:58+2022:00+201 2m--1-230.057225mWCRBundi, Rajasthan
34LKELakheri (3)X  22:09 22:08+2022:10+201 2m--1-222.466228mWCRBundi, Rajasthan
35IDGIndargarh Sumerganj Mandi (2)X  22:20+2122:22+262m--1-211.578247mWCRIndargarh, Rajasthan
36AMLIAmliX  22:32+2722:34+262m--1-198.465233mWCRSawai Madhopur, Rajasthan
37RWJRawania DungarXO  22:41+2722:43+342m--1-190.856266mWCRSawai Madhopur, Rajasthan
38KTAKushtala  22:52+3322:54+322m--1-182.327283mWCRNH 116, Rajasthan
39SWMSawai Madhopur Junction (4)  23:10+1823:15+205m--1-175.277266mWCRSawai Madhopur, Rajasthan
40RNTRanthambhore  23:23+3423:25+332m--1-165.069248mWCRMDR 111, Rajasthan
41MXLMokholiX  23:30 23:33+3523:35+335 2m--1-155.865242mWCRMDR 111, Rajasthan
42MLZMalarna  23:45+3323:47+332m--1-145.029236mWCRSawai Madhopur, Rajasthan
43NMDNomodaX  00:03 00:02+2500:04+241 2m--2-137.964238mWCRMDR 111, Rajasthan
44NNWNarayanpur Tatwara (2)  00:14 00:13+2100:15+221 2m--2-128.280256mWCRSawai Madhopur, Rajasthan
45LRULalpur UmriO  00:24 00:23+2500:25+421 2m--2-117.613276mWCRSH 1, Rajasthan
46GGCGangapur City (3)XO  00:55+1201:05+1310m--2-111.369270mWCRGangapur, Rajasthan
47COOChhoti Odai  01:17 01:16+2501:18+301 2m--2-98.547257mWCRSH 25, Rajasthan
48PDZPiliodaX  01:28+2801:30+302m--2-90.746247mWCRSH 1, Rajasthan
49KNDPKhandip new halt!!  01:38-01:40-2m--2-84.655245mWCRState Highway 1, Rajasthan
50SMBJShri Mahabirji (3)X  01:48+2501:50+342m--2-77.234240mWCRKarauli, Rajasthan
51HANHindaun City (2)  02:08+2502:10+272m--2-67.072230mWCRKarauli, Rajasthan
52FSPFateh Singhpura  02:21+3402:23+332m--2-53.871223mWCRState Highway 1, Rajasthan
53DYDumariya (2)XO  02:32+3102:34+352m--2-43.212211mWCRState Highway 1, Rajasthan
54BXNBayana Junction (3)  03:20+903:45+025m--2-34.154198mWCRBayana, Rajasthan
55BAMABirambad (1)  03:51 03:50-03:52-1 2m12-29.656196mNCRDumariya, Rajasthan
56BRBandh Bareta (1)  03:58 03:57+1303:59+121 2m12-25.057203mNCRDumariya, Rajasthan
57NGLTNaglatula (1)  04:06 04:05-04:07-1 2m12-19.363209mNCRBayana, Rajasthan
58BIQBansi Paharpur (1)  04:14 04:13+1204:15+131 2m12-13.058216mNCRRupbas, Rajasthan
59DXKDhana Kherli (1)  04:22 04:21-04:23-1 2m12-7.262192mNCRFatehpur Sikri, Uttar Pradesh
60RBSRupbas (2)»  04:31 04:30+1204:32+141 2m--20.046178mNCRJAGNER ROAD, Rajasthan
61AEDAulenda (1)  04:40 04:39-04:41-1 2m125.366179mNCRKiraoli, Uttar Pradesh
62FTSFatehpur Sikri (2)  04:50 04:49+1204:51+151 2m--214.244176mNCRAgra, Uttar Pradesh
63SNPRSingarpur (1)X  04:59 04:58-05:00-1 2m1219.373168mNCRRupbas, Rajasthan
64KLBKiraoli (1)  05:07 05:06+1305:08+131 2m1226.661174mNCRKiraoli, Uttar Pradesh
65MIQMirhakur (1)  05:17 05:16+1305:18+121 2m1234.745172mNCRIdgah Agra, Uttar Pradesh
66PTLIPathauli (1)  05:27 05:26+1205:28+141 2m1240.757174mNCRAgra Fort, Uttar Pradesh
67IDHIdgah Agra Junction (3)  05:36+1505:38+172m--248.26168mNCRAgra, Uttar Pradesh
68AFAgra Fort (3)•  06:00+9-2250.4-170mNCRRakabganj, Uttar Pradesh
Scroll to Top
Scroll to Bottom